Time;durP1;ratioP1;P1;durP2;ratioP2;P2;SDS_P1;SDS_P2;PMS_P1;PMS_P2;Temp;Humidity;BMP_temperature;BMP_pressure;BME280_temperature;BME280_humidity;BME280_pressure;Samples;Min_cycle;Max_cycle;Signal;HPM_P1;HPM_P2
2022/01/07 00:02:10;;;;;;;2.83;2.42;;;5.50;99.90;;;;;;4922518;28;20048;-81
2022/01/07 00:04:53;;;;;;;7.88;2.33;;;5.50;99.90;;;;;;4921002;28;21248;-81
2022/01/07 00:07:22;;;;;;;1.70;1.38;;;5.60;99.90;;;;;;4921302;28;20051;-81
2022/01/07 00:09:53;;;;;;;2.33;1.27;;;5.20;99.90;;;;;;4937387;28;20040;-81
2022/01/07 00:12:30;;;;;;;4.57;1.70;;;5.20;99.90;;;;;;4921028;28;21060;-81
2022/01/07 00:14:58;;;;;;;0.98;0.93;;;4.80;99.90;;;;;;4942046;28;20293;-81
2022/01/07 00:17:27;;;;;;;4.50;1.48;;;5.10;99.90;;;;;;4936928;28;20044;-81
2022/01/07 00:20:10;;;;;;;2.33;1.52;;;5.10;99.90;;;;;;4938656;28;20570;-81
2022/01/07 00:22:46;;;;;;;1.08;0.90;;;4.90;99.90;;;;;;4935006;28;20078;-81
2022/01/07 00:25:37;;;;;;;3.10;1.50;;;5.00;99.90;;;;;;4937178;28;20433;-81
2022/01/07 00:28:09;;;;;;;2.42;1.45;;;5.00;99.90;;;;;;4923250;28;20141;-80
2022/01/07 00:30:52;;;;;;;1.33;0.63;;;5.00;99.90;;;;;;4946901;28;20042;-81
2022/01/07 00:33:39;;;;;;;4.90;1.85;;;5.20;99.90;;;;;;4931148;28;20051;-82
2022/01/07 00:36:20;;;;;;;4.13;1.40;;;5.00;99.90;;;;;;4945418;28;20097;-80
2022/01/07 00:38:56;;;;;;;6.93;3.00;;;5.00;99.90;;;;;;4922232;28;20063;-81
2022/01/07 00:41:32;;;;;;;;;;;;;;;;;;;;;
2022/01/07 00:44:07;;;;;;;3.33;1.73;;;5.00;99.90;;;;;;4934637;28;38075;-81
2022/01/07 00:46:39;;;;;;;4.07;1.80;;;5.00;99.90;;;;;;4935107;28;20048;-80
2022/01/07 00:49:08;;;;;;;3.58;1.48;;;5.00;99.90;;;;;;4929648;28;20060;-81
2022/01/07 00:51:42;;;;;;;2.83;1.23;;;5.00;99.90;;;;;;4938914;28;20074;-80
2022/01/07 00:54:10;;;;;;;4.93;1.88;;;5.10;99.90;;;;;;4936586;28;20052;-81
2022/01/07 00:56:37;;;;;;;3.17;1.42;;;5.00;99.90;;;;;;4918866;28;20250;-80
2022/01/07 00:59:23;;;;;;;2.03;1.30;;;5.10;99.90;;;;;;4944717;28;20040;-81
2022/01/07 01:01:57;;;;;;;9.07;1.65;;;4.70;99.90;;;;;;4948673;28;20036;-81
2022/01/07 01:04:31;;;;;;;1.75;1.00;;;5.10;99.90;;;;;;4926571;28;20923;-81
2022/01/07 01:07:01;;;;;;;3.05;1.75;;;5.00;99.90;;;;;;4925540;28;20588;-80
2022/01/07 01:09:30;;;;;;;4.45;1.02;;;5.10;99.90;;;;;;4929208;28;20210;-82
2022/01/07 01:12:10;;;;;;;9.43;2.63;;;4.40;99.90;;;;;;4932870;28;20048;-82
2022/01/07 01:14:44;;;;;;;2.97;1.73;;;5.10;99.90;;;;;;4927017;28;20062;-81
2022/01/07 01:17:13;;;;;;;4.03;1.52;;;4.30;99.90;;;;;;4930243;28;20054;-81
2022/01/07 01:19:48;;;;;;;2.88;1.67;;;5.00;99.90;;;;;;4959154;28;20039;-81
2022/01/07 01:22:17;;;;;;;2.22;1.33;;;5.10;99.90;;;;;;4918995;28;20131;-81
2022/01/07 01:24:58;;;;;;;6.45;2.90;;;5.10;99.90;;;;;;4924900;28;20044;-81
2022/01/07 01:27:49;;;;;;;3.47;1.08;;;5.10;99.90;;;;;;4932827;28;20040;-81
2022/01/07 01:30:19;;;;;;;4.40;1.63;;;5.10;99.90;;;;;;4928075;28;20044;-81
2022/01/07 01:33:03;;;;;;;8.48;1.65;;;5.20;99.90;;;;;;4931427;28;20059;-81
2022/01/07 01:35:54;;;;;;;4.30;1.65;;;5.10;99.90;;;;;;4937381;28;20788;-81
2022/01/07 01:38:33;;;;;;;3.53;0.98;;;5.10;99.90;;;;;;4932221;28;20059;-81
2022/01/07 01:41:10;;;;;;;2.80;1.23;;;4.50;99.90;;;;;;4945856;28;20039;-82
2022/01/07 01:43:41;;;;;;;2.15;1.50;;;5.10;99.90;;;;;;4932143;28;20040;-81
2022/01/07 01:46:13;;;;;;;4.78;1.58;;;5.20;99.90;;;;;;4948785;28;20046;-82
2022/01/07 01:48:48;;;;;;;3.55;1.83;;;5.10;99.90;;;;;;4930634;28;20138;-81
2022/01/07 01:51:24;;;;;;;2.83;1.45;;;5.30;99.90;;;;;;4939354;28;20054;-81
2022/01/07 01:54:08;;;;;;;2.67;1.42;;;5.20;99.90;;;;;;4931503;28;20560;-81
2022/01/07 01:56:41;;;;;;;1.40;0.85;;;5.30;99.90;;;;;;4938368;28;20130;-81
2022/01/07 01:59:12;;;;;;;3.15;1.13;;;5.20;99.90;;;;;;4938953;28;20887;-81
2022/01/07 02:01:57;;;;;;;4.68;1.55;;;5.30;99.90;;;;;;4924816;28;20048;-81
2022/01/07 02:04:33;;;;;;;3.20;1.40;;;5.40;99.90;;;;;;4934694;28;20119;-81
2022/01/07 02:07:02;;;;;;;3.17;1.25;;;5.30;99.90;;;;;;4927143;28;20044;-81
2022/01/07 02:09:35;;;;;;;1.83;1.73;;;5.30;99.90;;;;;;4943362;28;20044;-82
2022/01/07 02:12:08;;;;;;;6.45;1.70;;;5.40;99.90;;;;;;4925449;28;20139;-80
2022/01/07 02:14:42;;;;;;;3.63;1.90;;;6.10;99.90;;;;;;4930221;28;20044;-81
2022/01/07 02:17:16;;;;;;;2.28;1.48;;;5.40;99.90;;;;;;4928300;28;20153;-82
2022/01/07 02:19:48;;;;;;;3.45;1.45;;;5.40;99.90;;;;;;4922314;28;20555;-81
2022/01/07 02:22:30;;;;;;;;;;;;;;;;;;;;;
2022/01/07 02:24:57;;;;;;;3.38;1.42;;;5.50;99.90;;;;;;4940728;28;40921;-81
2022/01/07 02:27:31;;;;;;;1.90;1.48;;;5.40;99.90;;;;;;4925501;28;20046;-81
2022/01/07 02:30:00;;;;;;;1.20;1.08;;;5.40;99.90;;;;;;4934058;28;20098;-81
2022/01/07 02:32:37;;;;;;;3.17;1.77;;;5.40;99.90;;;;;;4918851;28;20076;-82
2022/01/07 02:35:13;;;;;;;1.33;1.00;;;5.50;99.90;;;;;;4946681;28;20040;-81
2022/01/07 02:37:50;;;;;;;2.67;1.10;;;5.50;99.90;;;;;;4938864;28;20051;-82
2022/01/07 02:40:22;;;;;;;2.38;1.33;;;5.40;99.90;;;;;;4929822;28;20054;-81
2022/01/07 02:42:51;;;;;;;2.88;1.42;;;5.10;99.90;;;;;;4930453;28;20044;-81
2022/01/07 02:45:19;;;;;;;2.30;1.35;;;5.30;99.90;;;;;;4976333;28;20146;-82
2022/01/07 02:48:01;;;;;;;1.90;1.13;;;5.50;99.90;;;;;;5005098;28;20042;-80
2022/01/07 02:51:01;;;;;;;3.08;1.38;;;5.50;99.90;;;;;;4996745;28;20054;-81
2022/01/07 02:53:29;;;;;;;3.38;1.40;;;5.50;99.90;;;;;;5001315;28;20050;-81
2022/01/07 02:56:01;;;;;;;1.58;1.05;;;6.50;99.90;;;;;;5000250;28;20129;-81
2022/01/07 02:58:30;;;;;;;1.27;1.05;;;5.60;99.90;;;;;;4993639;28;20129;-82
2022/01/07 03:00:59;;;;;;;4.80;1.15;;;5.60;99.90;;;;;;5006682;28;20424;-81
2022/01/07 03:03:57;;;;;;;2.58;1.17;;;5.10;99.90;;;;;;4996881;28;20038;-81
2022/01/07 03:06:26;;;;;;;2.72;1.58;;;5.60;99.90;;;;;;5003133;28;20038;-81
2022/01/07 03:09:03;;;;;;;3.08;1.40;;;5.50;99.90;;;;;;4999895;28;20038;-81
2022/01/07 03:12:01;;;;;;;2.33;1.45;;;5.50;99.90;;;;;;4999379;28;20539;-81
2022/01/07 03:14:36;;;;;;;1.55;0.93;;;5.60;99.90;;;;;;4995408;28;20559;-80
2022/01/07 03:17:15;;;;;;;2.60;1.00;;;5.40;99.90;;;;;;4995759;28;20074;-81
2022/01/07 03:19:47;;;;;;;1.13;1.00;;;5.50;99.90;;;;;;4999036;28;20076;-81
2022/01/07 03:25:19;;;;;;;1.50;0.75;;;5.70;99.90;;;;;;4994906;28;20046;-81
2022/01/07 03:27:51;;;;;;;0.80;0.77;;;5.60;99.90;;;;;;4993605;28;20524;-81
2022/01/07 03:30:20;;;;;;;3.40;1.10;;;5.70;99.90;;;;;;5014746;28;20102;-81
2022/01/07 03:32:48;;;;;;;4.40;1.75;;;5.70;99.90;;;;;;5003759;28;20057;-81
2022/01/07 03:35:22;;;;;;;1.05;0.90;;;6.10;99.90;;;;;;4990399;28;20527;-81
2022/01/07 03:37:51;;;;;;;0.98;0.68;;;5.40;99.90;;;;;;5011112;28;20053;-81
2022/01/07 03:40:32;;;;;;;1.75;0.93;;;5.70;99.90;;;;;;5002227;28;20038;-80
2022/01/07 03:43:25;;;;;;;1.23;1.00;;;5.70;99.90;;;;;;4996411;28;20066;-81
2022/01/07 03:45:54;;;;;;;6.40;1.52;;;5.70;99.90;;;;;;4924086;28;20067;-80
2022/01/07 03:48:26;;;;;;;2.22;0.88;;;6.00;99.90;;;;;;4917760;28;20048;-81
2022/01/07 03:50:57;;;;;;;2.15;1.92;;;6.50;99.90;;;;;;4922058;28;20043;-81
2022/01/07 03:53:32;;;;;;;1.20;1.10;;;5.00;99.90;;;;;;4918547;28;20063;-81
2022/01/07 03:56:20;;;;;;;4.15;1.02;;;5.70;99.90;;;;;;4918968;28;20334;-80
2022/01/07 03:59:02;;;;;;;2.88;1.42;;;5.70;99.90;;;;;;4930718;28;20098;-81
2022/01/07 04:01:34;;;;;;;1.10;0.90;;;5.70;99.90;;;;;;4916168;28;20048;-81
2022/01/07 04:04:27;;;;;;;5.07;0.82;;;5.70;99.90;;;;;;4914128;28;20099;-80
2022/01/07 04:07:01;;;;;;;3.60;1.38;;;5.30;99.90;;;;;;4912380;28;20531;-81
2022/01/07 04:09:29;;;;;;;1.92;1.17;;;5.50;99.90;;;;;;4917681;28;20162;-81
2022/01/07 04:12:01;;;;;;;1.95;1.13;;;5.80;99.90;;;;;;4923645;28;20568;-81
2022/01/07 04:14:36;;;;;;;2.03;1.00;;;5.80;99.90;;;;;;4912562;28;20036;-81
2022/01/07 04:17:18;;;;;;;3.00;1.27;;;5.50;99.90;;;;;;4928103;28;20044;-81
2022/01/07 04:19:55;;;;;;;3.33;1.00;;;5.80;99.90;;;;;;4925724;28;20036;-80
2022/01/07 04:22:26;;;;;;;1.45;1.00;;;5.80;99.90;;;;;;4915846;28;20533;-80
2022/01/07 04:24:59;;;;;;;4.47;1.25;;;5.70;99.90;;;;;;4923835;28;20512;-81
2022/01/07 04:27:27;;;;;;;0.95;0.85;;;5.60;99.90;;;;;;4915705;28;20506;-81
2022/01/07 04:30:07;;;;;;;2.15;1.25;;;5.60;99.90;;;;;;4918419;28;20044;-81
2022/01/07 04:32:54;;;;;;;2.63;1.40;;;5.70;99.90;;;;;;4914088;28;20187;-81
2022/01/07 04:35:26;;;;;;;5.18;1.40;;;5.80;99.90;;;;;;4920863;28;20064;-81
2022/01/07 04:38:07;;;;;;;0.82;0.77;;;5.80;99.90;;;;;;4911030;28;20613;-80
2022/01/07 04:40:36;;;;;;;7.15;1.20;;;6.00;99.90;;;;;;4910172;28;20056;-80
2022/01/07 04:43:06;;;;;;;7.07;0.80;;;6.00;99.90;;;;;;4914828;28;20052;-80
2022/01/07 04:45:38;;;;;;;4.82;1.23;;;5.80;99.90;;;;;;4914487;28;20067;-81
2022/01/07 04:48:19;;;;;;;1.15;0.90;;;5.80;99.90;;;;;;4915079;28;20604;-81
2022/01/07 04:50:54;;;;;;;2.70;1.08;;;5.90;99.90;;;;;;4918589;28;20045;-81
2022/01/07 04:53:33;;;;;;;1.20;1.10;;;5.80;99.90;;;;;;4912065;28;20978;-81
2022/01/07 04:56:03;;;;;;;3.78;1.23;;;5.90;99.90;;;;;;4916207;28;20135;-81
2022/01/07 04:58:50;;;;;;;3.22;1.20;;;5.40;99.90;;;;;;4913009;28;20051;-81
2022/01/07 05:01:16;;;;;;;1.45;1.00;;;6.50;99.90;;;;;;4912344;28;20203;-80
2022/01/07 05:03:53;;;;;;;2.92;1.83;;;5.80;99.90;;;;;;4916663;28;20036;-81
2022/01/07 05:09:13;;;;;;;3.83;1.48;;;6.00;99.90;;;;;;4913875;28;20053;-81
2022/01/07 05:11:44;;;;;;;3.35;1.35;;;5.40;99.90;;;;;;4932558;28;20108;-81
2022/01/07 05:14:10;;;;;;;2.85;1.00;;;5.80;99.90;;;;;;4912196;28;20053;-81
2022/01/07 05:16:41;;;;;;;2.92;0.98;;;5.80;99.90;;;;;;4918852;28;20083;-82
2022/01/07 05:19:10;;;;;;;1.42;0.95;;;6.20;99.90;;;;;;4911909;28;20050;-81
2022/01/07 05:21:39;;;;;;;1.40;0.88;;;5.70;99.90;;;;;;4925869;28;20056;-80
2022/01/07 05:24:11;;;;;;;3.47;1.30;;;5.70;99.90;;;;;;4919447;28;20560;-81
2022/01/07 05:26:44;;;;;;;3.85;1.33;;;5.60;99.90;;;;;;4916173;28;20136;-80
2022/01/07 05:29:15;;;;;;;3.63;1.38;;;5.70;99.90;;;;;;4921049;28;20052;-80
2022/01/07 05:31:46;;;;;;;4.82;2.30;;;5.70;99.90;;;;;;4915901;28;20051;-80
2022/01/07 05:34:22;;;;;;;1.67;1.13;;;5.70;99.90;;;;;;4911563;28;20050;-80
2022/01/07 05:37:12;;;;;;;;;;;;;;;;;;;;;
2022/01/07 05:39:51;;;;;;;1.92;1.38;;;5.80;99.90;;;;;;4917102;28;41892;-80
2022/01/07 05:42:21;;;;;;;5.82;1.65;;;5.60;99.90;;;;;;4932063;28;20060;-80
2022/01/07 05:44:50;;;;;;;1.52;0.90;;;5.80;99.90;;;;;;4927921;28;20071;-80
2022/01/07 05:47:22;;;;;;;1.85;1.30;;;5.90;99.90;;;;;;4938415;28;20059;-80
2022/01/07 05:49:58;;;;;;;0.68;0.68;;;5.90;99.90;;;;;;4935362;28;20044;-80
2022/01/07 05:52:38;;;;;;;3.40;0.88;;;6.00;99.90;;;;;;4940386;28;20043;-80
2022/01/07 05:55:27;;;;;;;;;;;;;;;;;;;;;
2022/01/07 05:57:56;;;;;;;2.72;1.20;;;6.00;99.90;;;;;;4935276;28;43275;-79
2022/01/07 06:00:36;;;;;;;4.55;1.65;;;6.00;99.90;;;;;;4926420;28;20047;-80
2022/01/07 06:03:08;;;;;;;3.83;1.00;;;6.00;99.90;;;;;;4939315;28;20060;-81
2022/01/07 06:05:51;;;;;;;2.42;1.20;;;6.20;99.90;;;;;;4924948;28;20034;-80
2022/01/07 06:08:17;;;;;;;4.97;1.10;;;6.80;99.90;;;;;;4924757;28;20649;-80
2022/01/07 06:10:48;;;;;;;5.13;1.50;;;5.70;99.90;;;;;;4938973;28;20171;-80
2022/01/07 06:13:33;;;;;;;1.20;0.80;;;6.10;99.90;;;;;;4927951;28;20051;-80
2022/01/07 06:16:09;;;;;;;7.68;1.48;;;6.00;99.90;;;;;;4919000;28;20048;-80
2022/01/07 06:18:53;;;;;;;1.35;0.98;;;6.50;99.90;;;;;;4926964;28;20071;-80
2022/01/07 06:21:24;;;;;;;5.40;1.27;;;6.20;99.90;;;;;;4999766;28;20040;-80
2022/01/07 06:23:54;;;;;;;2.47;1.77;;;6.10;99.90;;;;;;4929908;28;20058;-79
2022/01/07 06:26:26;;;;;;;2.10;1.15;;;6.10;99.90;;;;;;4935851;28;20045;-80
2022/01/07 06:28:54;;;;;;;2.28;1.40;;;6.10;99.90;;;;;;4923869;28;20142;-80
2022/01/07 06:31:26;;;;;;;1.95;1.50;;;6.10;99.90;;;;;;4938622;28;20072;-79
2022/01/07 06:34:03;;;;;;;;;;;5.90;99.90;;;;;;4926905;28;20055;-80
2022/01/07 06:36:30;;;;;;;1.83;0.95;;;6.10;99.90;;;;;;4945349;28;20320;-79
2022/01/07 06:39:03;;;;;;;1.98;1.20;;;6.90;99.90;;;;;;4924756;28;20111;-80
2022/01/07 06:41:31;;;;;;;1.98;1.02;;;6.10;99.90;;;;;;4922216;28;20044;-77
2022/01/07 06:44:03;;;;;;;5.50;2.85;;;6.20;99.90;;;;;;4923903;28;20449;-80
2022/01/07 06:46:31;;;;;;;8.40;1.10;;;6.10;99.90;;;;;;4921561;28;20667;-81
2022/01/07 06:49:06;;;;;;;2.90;1.65;;;5.70;99.90;;;;;;4934883;28;20506;-82
2022/01/07 06:51:35;;;;;;;3.95;1.08;;;6.20;99.90;;;;;;4944448;28;20048;-81
2022/01/07 06:54:04;;;;;;;4.18;1.23;;;6.30;99.90;;;;;;4939675;28;20048;-81
2022/01/07 06:56:33;;;;;;;5.82;1.30;;;6.30;99.90;;;;;;4920060;28;20055;-80
2022/01/07 06:59:02;;;;;;;2.38;1.08;;;6.10;99.90;;;;;;4923878;28;20063;-80
2022/01/07 07:01:28;;;;;;;3.75;1.70;;;6.10;99.90;;;;;;4916059;28;20055;-80
2022/01/07 07:03:54;;;;;;;3.03;1.50;;;6.40;99.90;;;;;;4920739;28;20044;-80
2022/01/07 07:06:25;;;;;;;4.28;1.52;;;6.30;99.90;;;;;;4937000;28;20556;-80
2022/01/07 07:09:03;;;;;;;1.77;1.13;;;6.20;99.90;;;;;;4930800;28;20053;-79
2022/01/07 07:11:41;;;;;;;2.70;1.80;;;6.20;99.90;;;;;;4922996;28;20055;-78
2022/01/07 07:14:23;;;;;;;2.88;1.42;;;6.20;99.90;;;;;;4938592;28;20039;-79
2022/01/07 07:16:55;;;;;;;1.70;1.27;;;6.50;99.90;;;;;;4918811;28;20421;-78
2022/01/07 07:19:23;;;;;;;4.65;1.65;;;6.20;99.90;;;;;;4917854;28;20039;-79
2022/01/07 07:21:54;;;;;;;2.90;1.70;;;6.20;99.90;;;;;;4932431;28;20048;-78
2022/01/07 07:25:20;;;;;;;;;;;;;;;;;;;;;
2022/01/07 07:28:39;;;;;;;3.55;2.08;;;5.80;99.90;;;;;;5005576;28;39505;-78
2022/01/07 07:31:46;;;;;;;3.03;1.80;;;6.70;99.90;;;;;;4986605;28;20057;-80
2022/01/07 07:37:46;;;;;;;1.08;0.98;;;6.20;99.90;;;;;;5008833;28;20054;-81
2022/01/07 07:40:39;;;;;;;;;;;6.10;99.90;;;;;;5001643;28;20065;-81
2022/01/07 07:43:57;;;;;;;3.20;1.65;;;6.20;99.90;;;;;;4967571;28;19933;-81
2022/01/07 07:47:02;;;;;;;4.15;2.00;;;6.10;99.90;;;;;;4928978;28;20044;-81
2022/01/07 07:49:47;;;;;;;3.00;2.05;;;6.50;99.90;;;;;;4922715;28;20058;-82
2022/01/07 07:52:57;;;;;;;3.00;1.65;;;6.10;99.90;;;;;;4888602;28;20530;-81
2022/01/07 07:56:02;;;;;;;4.55;1.50;;;6.50;99.90;;;;;;4881852;28;20061;-80
2022/01/07 07:59:26;;;;;;;;;;;;;;;;;;;;;
2022/01/07 08:02:16;;;;;;;3.38;1.63;;;6.70;99.90;;;;;;4886816;28;40145;-81
2022/01/07 08:04:58;;;;;;;7.90;1.95;;;6.30;99.90;;;;;;4877103;28;20056;-81
2022/01/07 08:08:04;;;;;;;4.43;1.83;;;6.30;99.90;;;;;;4878868;28;20060;-82
2022/01/07 08:10:34;;;;;;;4.60;1.77;;;6.30;99.90;;;;;;4883027;28;20049;-81
2022/01/07 08:16:50;;;;;;;3.05;2.50;;;6.30;99.90;;;;;;4893808;28;20052;-81
2022/01/07 08:19:32;;;;;;;3.75;1.23;;;6.50;99.90;;;;;;4898414;28;20060;-82
2022/01/07 08:22:27;;;;;;;;;;;;;;;;;;;;;
2022/01/07 08:26:10;;;;;;;;;;;;;;;;;;;;;
2022/01/07 08:35:38;;;;;;;;;;;;;;;;;;;;;
2022/01/07 08:42:20;;;;;;;0.80;0.60;;;5.80;99.90;;;;;;4878035;28;20191;-83
2022/01/07 08:45:02;;;;;;;2.47;0.82;;;6.40;99.90;;;;;;4875762;28;20084;-84
2022/01/07 08:47:33;;;;;;;1.48;0.40;;;5.60;99.90;;;;;;4936354;28;20054;-84
2022/01/07 08:50:02;;;;;;;0.57;0.40;;;5.90;99.90;;;;;;4946682;28;20054;-83
2022/01/07 08:53:01;;;;;;;0.75;0.32;;;5.80;99.90;;;;;;4984703;28;20043;-83
2022/01/07 08:55:36;;;;;;;1.10;0.60;;;6.10;99.90;;;;;;4995011;28;20482;-83
2022/01/07 08:58:07;;;;;;;0.60;0.55;;;6.00;99.90;;;;;;4983351;28;20242;-83
2022/01/07 09:00:55;;;;;;;1.07;0.80;;;5.40;99.90;;;;;;4977964;28;20040;-82
2022/01/07 09:03:30;;;;;;;0.68;0.60;;;6.10;99.90;;;;;;4981352;28;20274;-83
2022/01/07 09:06:05;;;;;;;1.55;0.60;;;6.20;99.90;;;;;;4981205;28;20046;-82
2022/01/07 09:08:31;;;;;;;1.67;0.95;;;7.30;99.90;;;;;;4980639;28;20042;-82
2022/01/07 09:11:07;;;;;;;;;;;;;;;;;;;;;
2022/01/07 09:13:48;;;;;;;0.40;0.40;;;6.00;99.90;;;;;;4914246;28;39435;-82
2022/01/07 09:16:21;;;;;;;1.33;0.50;;;6.10;99.90;;;;;;4920315;28;20076;-82
2022/01/07 09:18:49;;;;;;;0.77;0.47;;;6.70;99.90;;;;;;4916130;28;20048;-83
2022/01/07 09:21:20;;;;;;;1.17;0.90;;;6.10;99.90;;;;;;4918656;28;20516;-82
2022/01/07 09:23:50;;;;;;;1.60;0.80;;;5.90;99.90;;;;;;4923327;28;20052;-82
2022/01/07 09:26:26;;;;;;;0.88;0.68;;;7.20;99.90;;;;;;4923504;28;20075;-81
2022/01/07 09:28:59;;;;;;;4.07;0.93;;;6.60;99.90;;;;;;4935444;28;20056;-81
2022/01/07 09:31:29;;;;;;;1.38;0.57;;;5.80;99.90;;;;;;5006864;28;20069;-81
2022/01/07 09:33:55;;;;;;;0.57;0.57;;;6.10;99.90;;;;;;4920479;28;20518;-81
2022/01/07 09:36:26;;;;;;;2.25;1.13;;;6.50;99.90;;;;;;4923185;28;20158;-82
2022/01/07 09:38:52;;;;;;;2.17;0.95;;;6.20;99.90;;;;;;4924493;28;20551;-82
2022/01/07 09:41:20;;;;;;;0.63;0.63;;;6.30;99.90;;;;;;4918443;28;20048;-80
2022/01/07 09:43:57;;;;;;;0.43;0.43;;;6.70;99.90;;;;;;4919115;28;20071;-82
2022/01/07 09:46:24;;;;;;;2.42;1.08;;;6.50;99.90;;;;;;4895899;28;20048;-82
2022/01/07 09:48:58;;;;;;;3.33;0.90;;;6.70;99.90;;;;;;4904856;28;20080;-81
2022/01/07 09:51:30;;;;;;;3.30;1.67;;;7.50;99.90;;;;;;4898601;28;20163;-82
2022/01/07 09:54:10;;;;;;;2.58;0.88;;;7.60;99.90;;;;;;4906308;28;20051;-82
2022/01/07 09:56:38;;;;;;;2.30;1.05;;;7.50;99.90;;;;;;4910456;28;20135;-81
2022/01/07 09:59:07;;;;;;;2.75;1.70;;;6.80;99.90;;;;;;4907585;28;20057;-81
2022/01/07 10:01:57;;;;;;;1.75;1.00;;;8.00;99.90;;;;;;4916501;28;20125;-82
2022/01/07 10:04:34;;;;;;;6.35;1.38;;;7.10;99.90;;;;;;4909845;28;20149;-83
2022/01/07 10:07:29;;;;;;;1.75;0.88;;;7.10;99.90;;;;;;4897089;28;20049;-81
2022/01/07 10:10:09;;;;;;;3.00;1.52;;;7.20;99.90;;;;;;4899113;28;20143;-83
2022/01/07 10:13:07;;;;;;;0.85;0.68;;;8.20;99.90;;;;;;4904108;28;20107;-82
2022/01/07 10:15:38;;;;;;;2.03;1.10;;;7.30;99.90;;;;;;4910341;28;20044;-82
2022/01/07 10:18:18;;;;;;;3.50;1.48;;;7.20;99.90;;;;;;4896415;28;20052;-82
2022/01/07 10:20:46;;;;;;;4.35;1.27;;;7.50;99.90;;;;;;4899821;28;20052;-81
2022/01/07 10:23:14;;;;;;;3.55;0.90;;;7.20;99.90;;;;;;4899060;28;20088;-82
2022/01/07 10:25:45;;;;;;;3.65;1.05;;;7.30;99.90;;;;;;4899190;28;20045;-81
2022/01/07 10:28:20;;;;;;;3.87;1.47;;;6.60;99.90;;;;;;4895905;28;20048;-83
2022/01/07 10:30:54;;;;;;;1.70;1.15;;;7.60;99.90;;;;;;4902752;28;20155;-80
2022/01/07 10:33:37;;;;;;;3.30;1.73;;;7.60;99.90;;;;;;4895309;28;20058;-81
2022/01/07 10:36:17;;;;;;;4.47;1.20;;;7.60;99.90;;;;;;4897628;28;20036;-82
2022/01/07 10:39:11;;;;;;;2.47;1.00;;;6.40;99.90;;;;;;4915510;28;20067;-81
2022/01/07 10:42:00;;;;;;;1.50;0.90;;;7.60;99.90;;;;;;4902440;28;20141;-81
2022/01/07 10:44:31;;;;;;;1.33;0.75;;;7.60;99.90;;;;;;4899724;28;20087;-81
2022/01/07 10:47:23;;;;;;;6.88;1.38;;;7.60;99.90;;;;;;4917892;28;20076;-82
2022/01/07 10:50:19;;;;;;;4.93;1.83;;;7.50;99.90;;;;;;4927857;28;20044;-81
2022/01/07 10:52:54;;;;;;;1.17;0.80;;;7.70;99.90;;;;;;4921124;28;20052;-81
2022/01/07 10:55:24;;;;;;;2.42;1.42;;;7.60;99.90;;;;;;4918288;28;20102;-82
2022/01/07 10:58:00;;;;;;;2.72;2.47;;;7.60;99.90;;;;;;4919568;28;20152;-82
2022/01/07 11:00:27;;;;;;;4.57;1.13;;;7.60;99.90;;;;;;4922112;28;20151;-82
2022/01/07 11:03:09;;;;;;;1.55;0.82;;;7.40;99.90;;;;;;4917738;28;20055;-82
2022/01/07 11:05:44;;;;;;;2.70;1.37;;;7.40;99.90;;;;;;4917687;28;20104;-81
2022/01/07 11:08:22;;;;;;;2.33;1.40;;;7.40;99.90;;;;;;4921888;28;20269;-82
2022/01/07 11:11:01;;;;;;;1.38;0.88;;;7.30;99.90;;;;;;4918498;28;20082;-82
2022/01/07 11:13:35;;;;;;;2.33;1.13;;;7.40;99.90;;;;;;4917314;28;20779;-81
2022/01/07 11:16:08;;;;;;;1.33;0.75;;;7.20;99.90;;;;;;4929650;28;20067;-81
2022/01/07 11:18:48;;;;;;;2.53;0.82;;;6.70;99.90;;;;;;4914353;28;20056;-82
2022/01/07 11:21:21;;;;;;;2.50;1.23;;;6.60;99.90;;;;;;4917791;28;20057;-82
2022/01/07 11:23:59;;;;;;;2.17;1.02;;;7.20;99.90;;;;;;4925128;28;20056;-82
2022/01/07 11:27:16;;;;;;;1.83;0.93;;;7.20;99.90;;;;;;4916255;28;20091;-81
2022/01/07 11:30:15;;;;;;;3.70;1.05;;;7.20;99.90;;;;;;4912716;28;20122;-81
2022/01/07 11:32:44;;;;;;;6.28;1.27;;;7.10;99.90;;;;;;4910156;28;20059;-80
2022/01/07 11:39:03;;;;;;;0.57;0.55;;;6.60;99.90;;;;;;4898178;28;20052;-84
2022/01/07 11:42:10;;;;;;;;;;;;;;;;;;;;;
2022/01/07 11:48:30;;;;;;;0.60;0.57;;;7.40;99.90;;;;;;4943880;28;20071;-81
2022/01/07 11:51:01;;;;;;;2.88;1.15;;;7.40;99.90;;;;;;4936862;28;20040;-81
2022/01/07 11:54:31;;;;;;;2.10;1.27;;;7.30;99.90;;;;;;4919840;28;20737;-80
2022/01/07 11:57:13;;;;;;;1.67;1.42;;;7.00;99.90;;;;;;4936823;28;20446;-81
2022/01/07 11:59:54;;;;;;;8.38;1.55;;;7.30;99.90;;;;;;4922562;28;20052;-81
2022/01/07 12:02:52;;;;;;;2.78;1.02;;;7.20;99.90;;;;;;5010671;28;20070;-81
2022/01/07 12:05:43;;;;;;;1.27;0.52;;;7.60;99.90;;;;;;4923565;28;20140;-81
2022/01/07 12:08:25;;;;;;;;;;;;;;;;;;;;;
2022/01/07 12:11:07;;;;;;;3.97;0.98;;;7.30;99.90;;;;;;4933523;28;46204;-81
2022/01/07 12:13:40;;;;;;;4.95;0.82;;;7.30;99.90;;;;;;4938344;28;20054;-81
2022/01/07 12:16:29;;;;;;;2.28;1.25;;;7.20;99.90;;;;;;4920439;28;20928;-81
2022/01/07 12:19:20;;;;;;;3.67;1.20;;;7.30;99.90;;;;;;4923544;28;20070;-81
2022/01/07 12:21:59;;;;;;;1.73;1.02;;;7.30;99.90;;;;;;4931104;28;20086;-84
2022/01/07 12:24:40;;;;;;;4.68;1.17;;;7.40;99.90;;;;;;4930982;28;20054;-82
2022/01/07 12:27:37;;;;;;;1.42;0.90;;;6.70;99.90;;;;;;4922225;28;20050;-81
2022/01/07 12:30:06;;;;;;;8.35;0.85;;;7.50;99.90;;;;;;4927728;28;20040;-78
2022/01/07 12:33:15;;;;;;;2.45;1.30;;;7.50;99.90;;;;;;4919856;28;20040;-85
2022/01/07 12:35:47;;;;;;;1.40;0.77;;;7.80;99.90;;;;;;4918357;28;20052;-79
2022/01/07 12:39:06;;;;;;;2.10;1.10;;;7.50;99.90;;;;;;5000240;28;20489;-82
2022/01/07 12:42:11;;;;;;;2.80;0.90;;;7.50;99.90;;;;;;4886191;28;20048;-81
2022/01/07 12:44:57;;;;;;;0.95;0.40;;;8.60;99.90;;;;;;4895428;28;20060;-78
2022/01/07 12:47:33;;;;;;;2.17;0.95;;;7.60;99.90;;;;;;4912485;28;20215;-79
2022/01/07 12:50:23;;;;;;;;;;;;;;;;;;;;;
2022/01/07 12:53:02;;;;;;;3.22;1.00;;;7.50;99.90;;;;;;4915807;28;45511;-79
2022/01/07 12:55:57;;;;;;;3.58;1.08;;;7.60;99.90;;;;;;4894946;28;20040;-80
2022/01/07 12:58:50;;;;;;;1.13;0.38;;;7.60;99.90;;;;;;4897754;28;20037;-79
2022/01/07 13:01:42;;;;;;;;;;;7.80;99.90;;;;;;4917388;28;20052;-79
2022/01/07 13:04:38;;;;;;;0.47;0.40;;;7.40;99.90;;;;;;4932661;28;19934;-79
2022/01/07 13:07:44;;;;;;;2.95;1.45;;;9.20;99.90;;;;;;4894716;28;20048;-79
2022/01/07 13:10:49;;;;;;;1.73;0.70;;;7.60;99.90;;;;;;4896803;28;20055;-79
2022/01/07 13:17:10;;;;;;;2.45;1.02;;;7.50;99.90;;;;;;4914138;28;20301;-79
2022/01/07 13:19:58;;;;;;;1.95;1.33;;;7.80;99.90;;;;;;4925334;28;20078;-80
2022/01/07 13:22:31;;;;;;;1.77;0.90;;;7.80;99.90;;;;;;4942667;28;20048;-79
2022/01/07 13:25:31;;;;;;;0.45;0.45;;;8.80;99.90;;;;;;4919267;28;20847;-79
2022/01/07 13:31:19;;;;;;;;;;;;;;;;;;;;;
2022/01/07 13:34:09;;;;;;;4.15;0.85;;;8.30;99.90;;;;;;4940512;28;41025;-79
2022/01/07 13:37:02;;;;;;;3.08;1.10;;;8.10;99.90;;;;;;4937769;28;21013;-78
2022/01/07 13:40:26;;;;;;;0.77;0.70;;;7.50;99.90;;;;;;4933085;28;20043;-80
2022/01/07 13:46:20;;;;;;;1.33;0.77;;;8.10;99.90;;;;;;4950639;28;20799;-79
2022/01/07 13:49:25;;;;;;;1.77;0.75;;;8.00;99.90;;;;;;4921995;28;20059;-79
2022/01/07 13:52:09;;;;;;;6.07;1.10;;;7.90;99.90;;;;;;4925342;28;20048;-79
2022/01/07 13:54:47;;;;;;;0.93;0.65;;;7.90;99.90;;;;;;4918712;28;20067;-79
2022/01/07 13:57:36;;;;;;;2.78;0.90;;;7.90;99.90;;;;;;4926215;28;20170;-79
2022/01/07 14:00:23;;;;;;;1.23;0.73;;;8.00;99.90;;;;;;4919258;28;20032;-79
2022/01/07 14:06:19;;;;;;;0.38;0.25;;;7.90;99.90;;;;;;4919971;28;20099;-79
2022/01/07 14:09:29;;;;;;;1.95;0.80;;;8.00;99.90;;;;;;4924333;28;20044;-79
2022/01/07 14:12:30;;;;;;;4.75;0.52;;;8.10;99.90;;;;;;4947916;28;20048;-79
2022/01/07 14:15:17;;;;;;;1.45;0.93;;;8.10;99.90;;;;;;4939812;28;20060;-79
2022/01/07 14:17:46;;;;;;;0.65;0.50;;;8.30;99.90;;;;;;4923032;28;20047;-79
2022/01/07 14:20:19;;;;;;;2.28;0.98;;;8.30;99.90;;;;;;4924459;28;20055;-79
2022/01/07 14:23:09;;;;;;;2.45;0.75;;;8.30;99.90;;;;;;4919151;28;20061;-79
2022/01/07 14:25:48;;;;;;;0.35;0.25;;;9.30;99.90;;;;;;4921773;28;20557;-80
2022/01/07 14:28:21;;;;;;;1.23;0.70;;;8.80;99.90;;;;;;4920134;28;20048;-79
2022/01/07 14:30:55;;;;;;;2.17;0.80;;;8.50;99.90;;;;;;4921940;28;20052;-80
2022/01/07 14:33:34;;;;;;;4.90;1.48;;;8.40;99.90;;;;;;4921679;28;20052;-80
2022/01/07 14:36:06;;;;;;;2.75;2.00;;;8.40;99.90;;;;;;4922478;28;20060;-80
2022/01/07 14:38:52;;;;;;;1.30;0.60;;;8.30;99.90;;;;;;4925666;28;20513;-79
2022/01/07 14:41:50;;;;;;;4.30;0.75;;;7.60;99.90;;;;;;4921002;28;20647;-79
2022/01/07 14:44:28;;;;;;;7.00;1.13;;;8.30;99.90;;;;;;4920530;28;20060;-80
2022/01/07 14:47:09;;;;;;;1.92;0.88;;;8.50;99.90;;;;;;4918913;28;20516;-79
2022/01/07 14:49:42;;;;;;;2.00;1.05;;;7.80;99.90;;;;;;5003218;28;20087;-80
2022/01/07 14:52:24;;;;;;;2.72;1.17;;;8.30;99.90;;;;;;4935653;28;20899;-79
2022/01/07 14:57:58;;;;;;;2.92;1.15;;;8.30;99.90;;;;;;4935088;28;20052;-79
2022/01/07 15:00:28;;;;;;;1.85;1.00;;;8.30;99.90;;;;;;4923907;28;20066;-79
2022/01/07 15:03:00;;;;;;;1.83;0.98;;;9.40;99.90;;;;;;4922649;28;20040;-79
2022/01/07 15:05:28;;;;;;;4.38;0.95;;;8.70;99.90;;;;;;4919550;28;20315;-79